sensor_id;sensor_type;location;lat;lon;timestamp;temperature;humidity
12291;DHT22;6208;48.956;9.076;2023-08-21T00:01:41;24.20;99.90
12291;DHT22;6208;48.956;9.076;2023-08-21T00:04:26;24.20;99.90
12291;DHT22;6208;48.956;9.076;2023-08-21T00:07:10;24.10;99.90
12291;DHT22;6208;48.956;9.076;2023-08-21T00:09:55;24.00;99.90
12291;DHT22;6208;48.956;9.076;2023-08-21T00:12:39;23.90;99.90
12291;DHT22;6208;48.956;9.076;2023-08-21T00:15:23;23.80;99.90
12291;DHT22;6208;48.956;9.076;2023-08-21T00:18:07;23.70;99.90
12291;DHT22;6208;48.956;9.076;2023-08-21T00:20:51;23.60;99.90
12291;DHT22;6208;48.956;9.076;2023-08-21T00:23:36;23.60;99.90
12291;DHT22;6208;48.956;9.076;2023-08-21T00:26:20;23.60;99.90
12291;DHT22;6208;48.956;9.076;2023-08-21T00:29:04;23.50;99.90
12291;DHT22;6208;48.956;9.076;2023-08-21T00:31:48;23.60;99.90
12291;DHT22;6208;48.956;9.076;2023-08-21T00:34:32;23.60;99.90
12291;DHT22;6208;48.956;9.076;2023-08-21T00:37:16;23.70;99.90
12291;DHT22;6208;48.956;9.076;2023-08-21T00:40:00;23.70;99.90
12291;DHT22;6208;48.956;9.076;2023-08-21T00:42:44;23.70;99.90
12291;DHT22;6208;48.956;9.076;2023-08-21T00:45:28;23.80;99.90
12291;DHT22;6208;48.956;9.076;2023-08-21T00:48:14;23.80;99.90
12291;DHT22;6208;48.956;9.076;2023-08-21T00:50:58;23.80;99.90
12291;DHT22;6208;48.956;9.076;2023-08-21T00:53:44;23.90;99.90
12291;DHT22;6208;48.956;9.076;2023-08-21T00:56:29;23.70;99.90
12291;DHT22;6208;48.956;9.076;2023-08-21T00:59:14;23.60;99.90
12291;DHT22;6208;48.956;9.076;2023-08-21T01:01:58;23.60;99.90
12291;DHT22;6208;48.956;9.076;2023-08-21T01:04:43;23.50;99.90
12291;DHT22;6208;48.956;9.076;2023-08-21T01:07:27;23.40;99.90
12291;DHT22;6208;48.956;9.076;2023-08-21T01:10:18;23.40;99.90
12291;DHT22;6208;48.956;9.076;2023-08-21T01:13:19;23.40;99.90
12291;DHT22;6208;48.956;9.076;2023-08-21T01:16:07;23.30;99.90
12291;DHT22;6208;48.956;9.076;2023-08-21T01:18:52;23.20;99.90
12291;DHT22;6208;48.956;9.076;2023-08-21T01:21:38;23.10;99.90
12291;DHT22;6208;48.956;9.076;2023-08-21T01:24:22;23.00;99.90
12291;DHT22;6208;48.956;9.076;2023-08-21T01:27:06;23.10;99.90
12291;DHT22;6208;48.956;9.076;2023-08-21T01:29:51;23.00;99.90
12291;DHT22;6208;48.956;9.076;2023-08-21T01:32:47;23.00;99.90
12291;DHT22;6208;48.956;9.076;2023-08-21T01:35:34;23.20;99.90
12291;DHT22;6208;48.956;9.076;2023-08-21T01:38:19;23.30;99.90
12291;DHT22;6208;48.956;9.076;2023-08-21T01:41:04;23.40;99.90
12291;DHT22;6208;48.956;9.076;2023-08-21T01:43:48;23.40;99.90
12291;DHT22;6208;48.956;9.076;2023-08-21T01:46:32;23.30;99.90
12291;DHT22;6208;48.956;9.076;2023-08-21T01:49:16;23.30;99.90
12291;DHT22;6208;48.956;9.076;2023-08-21T01:52:03;23.10;99.90
12291;DHT22;6208;48.956;9.076;2023-08-21T01:54:50;23.00;99.90
12291;DHT22;6208;48.956;9.076;2023-08-21T01:57:34;22.90;99.90
12291;DHT22;6208;48.956;9.076;2023-08-21T02:00:18;22.90;99.90
12291;DHT22;6208;48.956;9.076;2023-08-21T02:03:02;22.80;99.90
12291;DHT22;6208;48.956;9.076;2023-08-21T02:05:46;22.70;99.90
12291;DHT22;6208;48.956;9.076;2023-08-21T02:08:32;22.70;99.90
12291;DHT22;6208;48.956;9.076;2023-08-21T02:11:16;22.70;99.90
12291;DHT22;6208;48.956;9.076;2023-08-21T02:14:01;22.70;99.90
12291;DHT22;6208;48.956;9.076;2023-08-21T02:16:46;22.70;99.90
12291;DHT22;6208;48.956;9.076;2023-08-21T02:19:30;22.60;99.90
12291;DHT22;6208;48.956;9.076;2023-08-21T02:22:14;22.50;99.90
12291;DHT22;6208;48.956;9.076;2023-08-21T02:24:58;22.50;99.90
12291;DHT22;6208;48.956;9.076;2023-08-21T02:27:43;22.60;99.90
12291;DHT22;6208;48.956;9.076;2023-08-21T02:30:28;22.60;99.90
12291;DHT22;6208;48.956;9.076;2023-08-21T02:33:12;22.60;99.90
12291;DHT22;6208;48.956;9.076;2023-08-21T02:35:57;22.70;99.90
12291;DHT22;6208;48.956;9.076;2023-08-21T02:38:41;22.60;99.90
12291;DHT22;6208;48.956;9.076;2023-08-21T02:41:25;22.60;99.90
12291;DHT22;6208;48.956;9.076;2023-08-21T02:44:09;22.50;99.90
12291;DHT22;6208;48.956;9.076;2023-08-21T02:46:53;22.50;99.90
12291;DHT22;6208;48.956;9.076;2023-08-21T02:49:37;22.50;99.90
12291;DHT22;6208;48.956;9.076;2023-08-21T02:52:21;22.50;99.90
12291;DHT22;6208;48.956;9.076;2023-08-21T02:55:05;22.50;99.90
12291;DHT22;6208;48.956;9.076;2023-08-21T02:57:50;22.40;99.90
12291;DHT22;6208;48.956;9.076;2023-08-21T03:00:34;22.40;99.90
12291;DHT22;6208;48.956;9.076;2023-08-21T03:03:18;22.30;99.90
12291;DHT22;6208;48.956;9.076;2023-08-21T03:06:03;22.20;99.90
12291;DHT22;6208;48.956;9.076;2023-08-21T03:08:46;22.20;99.90
12291;DHT22;6208;48.956;9.076;2023-08-21T03:11:30;22.10;99.90
12291;DHT22;6208;48.956;9.076;2023-08-21T03:14:14;22.10;99.90
12291;DHT22;6208;48.956;9.076;2023-08-21T03:16:59;22.10;99.90
12291;DHT22;6208;48.956;9.076;2023-08-21T03:19:43;22.20;99.90
12291;DHT22;6208;48.956;9.076;2023-08-21T03:22:27;22.20;99.90
12291;DHT22;6208;48.956;9.076;2023-08-21T03:25:11;22.20;99.90
12291;DHT22;6208;48.956;9.076;2023-08-21T03:27:55;22.20;99.90
12291;DHT22;6208;48.956;9.076;2023-08-21T03:30:39;22.30;99.90
12291;DHT22;6208;48.956;9.076;2023-08-21T03:33:24;22.30;99.90
12291;DHT22;6208;48.956;9.076;2023-08-21T03:36:09;22.20;99.90
12291;DHT22;6208;48.956;9.076;2023-08-21T03:38:53;22.30;99.90
12291;DHT22;6208;48.956;9.076;2023-08-21T03:41:37;22.20;99.90
12291;DHT22;6208;48.956;9.076;2023-08-21T03:44:21;22.10;99.90
12291;DHT22;6208;48.956;9.076;2023-08-21T03:47:05;22.00;99.90
12291;DHT22;6208;48.956;9.076;2023-08-21T03:49:49;22.00;99.90
12291;DHT22;6208;48.956;9.076;2023-08-21T03:52:33;22.00;99.90
12291;DHT22;6208;48.956;9.076;2023-08-21T03:55:17;22.00;99.90
12291;DHT22;6208;48.956;9.076;2023-08-21T03:58:01;21.90;99.90
12291;DHT22;6208;48.956;9.076;2023-08-21T04:00:45;22.00;99.90
12291;DHT22;6208;48.956;9.076;2023-08-21T04:03:29;22.00;99.90
12291;DHT22;6208;48.956;9.076;2023-08-21T04:06:13;22.00;99.90
12291;DHT22;6208;48.956;9.076;2023-08-21T04:08:58;22.00;99.90
12291;DHT22;6208;48.956;9.076;2023-08-21T04:11:42;22.00;99.90
12291;DHT22;6208;48.956;9.076;2023-08-21T04:14:26;22.10;99.90
12291;DHT22;6208;48.956;9.076;2023-08-21T04:17:10;22.20;99.90
12291;DHT22;6208;48.956;9.076;2023-08-21T04:19:55;22.30;99.90
12291;DHT22;6208;48.956;9.076;2023-08-21T04:22:39;22.40;99.90
12291;DHT22;6208;48.956;9.076;2023-08-21T04:25:23;22.40;99.90
12291;DHT22;6208;48.956;9.076;2023-08-21T04:28:08;22.40;99.90
12291;DHT22;6208;48.956;9.076;2023-08-21T04:30:53;22.50;99.90
12291;DHT22;6208;48.956;9.076;2023-08-21T04:33:37;22.50;99.90
12291;DHT22;6208;48.956;9.076;2023-08-21T04:36:21;22.50;99.90
12291;DHT22;6208;48.956;9.076;2023-08-21T04:39:05;22.50;99.90
12291;DHT22;6208;48.956;9.076;2023-08-21T04:41:49;22.50;99.90
12291;DHT22;6208;48.956;9.076;2023-08-21T04:44:33;22.50;99.90
12291;DHT22;6208;48.956;9.076;2023-08-21T04:47:22;22.40;99.90
12291;DHT22;6208;48.956;9.076;2023-08-21T04:50:07;22.40;99.90
12291;DHT22;6208;48.956;9.076;2023-08-21T04:52:51;22.50;99.90
12291;DHT22;6208;48.956;9.076;2023-08-21T04:55:36;22.40;99.90
12291;DHT22;6208;48.956;9.076;2023-08-21T04:58:20;22.40;99.90
12291;DHT22;6208;48.956;9.076;2023-08-21T05:01:05;22.40;99.90
12291;DHT22;6208;48.956;9.076;2023-08-21T05:03:49;22.50;99.90
12291;DHT22;6208;48.956;9.076;2023-08-21T05:06:34;22.50;99.90
12291;DHT22;6208;48.956;9.076;2023-08-21T05:09:18;22.50;99.90
12291;DHT22;6208;48.956;9.076;2023-08-21T05:12:03;22.60;99.90
12291;DHT22;6208;48.956;9.076;2023-08-21T05:14:47;22.60;99.90
12291;DHT22;6208;48.956;9.076;2023-08-21T05:17:31;22.60;99.90
12291;DHT22;6208;48.956;9.076;2023-08-21T05:20:15;22.60;99.90
12291;DHT22;6208;48.956;9.076;2023-08-21T05:22:59;22.60;99.90
12291;DHT22;6208;48.956;9.076;2023-08-21T05:25:44;22.70;99.90
12291;DHT22;6208;48.956;9.076;2023-08-21T05:28:28;22.60;99.90
12291;DHT22;6208;48.956;9.076;2023-08-21T05:31:12;22.60;99.90
12291;DHT22;6208;48.956;9.076;2023-08-21T05:33:56;22.60;99.90
12291;DHT22;6208;48.956;9.076;2023-08-21T05:36:41;22.70;99.90
12291;DHT22;6208;48.956;9.076;2023-08-21T05:39:25;22.80;99.90
12291;DHT22;6208;48.956;9.076;2023-08-21T05:42:09;22.80;99.90
12291;DHT22;6208;48.956;9.076;2023-08-21T05:44:53;22.80;99.90
12291;DHT22;6208;48.956;9.076;2023-08-21T05:47:37;22.90;99.90
12291;DHT22;6208;48.956;9.076;2023-08-21T05:50:22;22.90;99.90
12291;DHT22;6208;48.956;9.076;2023-08-21T05:53:06;22.90;99.90
12291;DHT22;6208;48.956;9.076;2023-08-21T05:55:52;22.90;99.90
12291;DHT22;6208;48.956;9.076;2023-08-21T05:58:36;23.00;99.90
12291;DHT22;6208;48.956;9.076;2023-08-21T06:01:20;23.10;99.90
12291;DHT22;6208;48.956;9.076;2023-08-21T06:04:04;23.20;99.90
12291;DHT22;6208;48.956;9.076;2023-08-21T06:06:48;23.20;99.90
12291;DHT22;6208;48.956;9.076;2023-08-21T06:09:32;23.30;99.90
12291;DHT22;6208;48.956;9.076;2023-08-21T06:12:18;23.40;99.90
12291;DHT22;6208;48.956;9.076;2023-08-21T06:15:03;23.40;99.90
12291;DHT22;6208;48.956;9.076;2023-08-21T06:17:47;23.50;99.90
12291;DHT22;6208;48.956;9.076;2023-08-21T06:20:31;23.50;99.90
12291;DHT22;6208;48.956;9.076;2023-08-21T06:23:15;23.60;99.90
12291;DHT22;6208;48.956;9.076;2023-08-21T06:26:00;23.70;99.90
12291;DHT22;6208;48.956;9.076;2023-08-21T06:28:44;23.80;99.90
12291;DHT22;6208;48.956;9.076;2023-08-21T06:31:28;23.80;99.90
12291;DHT22;6208;48.956;9.076;2023-08-21T06:34:12;23.80;99.90
12291;DHT22;6208;48.956;9.076;2023-08-21T06:36:56;23.90;99.90
12291;DHT22;6208;48.956;9.076;2023-08-21T06:39:40;23.90;99.90
12291;DHT22;6208;48.956;9.076;2023-08-21T06:42:24;24.00;99.90
12291;DHT22;6208;48.956;9.076;2023-08-21T06:45:08;24.10;99.90
12291;DHT22;6208;48.956;9.076;2023-08-21T06:47:53;24.20;99.90
12291;DHT22;6208;48.956;9.076;2023-08-21T06:50:37;24.30;99.90
12291;DHT22;6208;48.956;9.076;2023-08-21T06:53:22;24.30;99.90
12291;DHT22;6208;48.956;9.076;2023-08-21T06:56:06;24.40;99.90
12291;DHT22;6208;48.956;9.076;2023-08-21T06:58:51;24.50;99.90
12291;DHT22;6208;48.956;9.076;2023-08-21T07:01:36;24.50;99.90
12291;DHT22;6208;48.956;9.076;2023-08-21T07:04:20;24.70;99.90
12291;DHT22;6208;48.956;9.076;2023-08-21T07:07:04;24.80;99.90
12291;DHT22;6208;48.956;9.076;2023-08-21T07:09:50;24.80;99.90
12291;DHT22;6208;48.956;9.076;2023-08-21T07:12:34;24.90;99.90
12291;DHT22;6208;48.956;9.076;2023-08-21T07:15:18;25.00;99.90
12291;DHT22;6208;48.956;9.076;2023-08-21T07:18:02;25.10;99.90
12291;DHT22;6208;48.956;9.076;2023-08-21T07:20:47;25.10;99.90
12291;DHT22;6208;48.956;9.076;2023-08-21T07:23:31;25.20;99.90
12291;DHT22;6208;48.956;9.076;2023-08-21T07:26:17;25.50;99.90
12291;DHT22;6208;48.956;9.076;2023-08-21T07:29:01;25.50;99.90
12291;DHT22;6208;48.956;9.076;2023-08-21T07:31:45;25.60;99.90
12291;DHT22;6208;48.956;9.076;2023-08-21T07:34:29;25.80;99.90
12291;DHT22;6208;48.956;9.076;2023-08-21T07:37:13;25.80;99.90
12291;DHT22;6208;48.956;9.076;2023-08-21T07:39:57;25.90;99.90
12291;DHT22;6208;48.956;9.076;2023-08-21T07:42:41;25.90;99.90
12291;DHT22;6208;48.956;9.076;2023-08-21T07:45:25;25.90;99.90
12291;DHT22;6208;48.956;9.076;2023-08-21T07:48:10;25.90;99.90
12291;DHT22;6208;48.956;9.076;2023-08-21T07:50:54;26.00;99.90
12291;DHT22;6208;48.956;9.076;2023-08-21T07:53:38;26.10;99.90
12291;DHT22;6208;48.956;9.076;2023-08-21T07:56:22;26.20;99.90
12291;DHT22;6208;48.956;9.076;2023-08-21T07:59:06;26.40;99.90
12291;DHT22;6208;48.956;9.076;2023-08-21T08:01:50;26.50;99.90
12291;DHT22;6208;48.956;9.076;2023-08-21T08:04:34;26.60;99.90
12291;DHT22;6208;48.956;9.076;2023-08-21T08:07:18;26.60;99.90
12291;DHT22;6208;48.956;9.076;2023-08-21T08:10:02;26.80;99.90
12291;DHT22;6208;48.956;9.076;2023-08-21T08:12:47;26.80;99.90
12291;DHT22;6208;48.956;9.076;2023-08-21T08:15:31;26.90;99.90
12291;DHT22;6208;48.956;9.076;2023-08-21T08:18:15;27.20;99.90
12291;DHT22;6208;48.956;9.076;2023-08-21T08:21:00;27.30;99.90
12291;DHT22;6208;48.956;9.076;2023-08-21T08:23:44;27.40;99.90
12291;DHT22;6208;48.956;9.076;2023-08-21T08:26:28;27.40;99.90
12291;DHT22;6208;48.956;9.076;2023-08-21T08:29:13;27.70;99.90
12291;DHT22;6208;48.956;9.076;2023-08-21T08:31:57;27.80;99.90
12291;DHT22;6208;48.956;9.076;2023-08-21T08:34:41;27.80;99.90
12291;DHT22;6208;48.956;9.076;2023-08-21T08:37:25;27.90;99.90
12291;DHT22;6208;48.956;9.076;2023-08-21T08:40:13;28.10;99.90
12291;DHT22;6208;48.956;9.076;2023-08-21T08:42:57;28.20;99.90
12291;DHT22;6208;48.956;9.076;2023-08-21T08:45:43;28.40;99.90
12291;DHT22;6208;48.956;9.076;2023-08-21T08:48:28;28.40;99.90
12291;DHT22;6208;48.956;9.076;2023-08-21T08:51:13;28.50;99.90
12291;DHT22;6208;48.956;9.076;2023-08-21T08:53:58;28.60;99.90
12291;DHT22;6208;48.956;9.076;2023-08-21T08:56:43;28.70;99.90
12291;DHT22;6208;48.956;9.076;2023-08-21T08:59:32;28.80;99.90
12291;DHT22;6208;48.956;9.076;2023-08-21T09:02:16;28.90;99.90
12291;DHT22;6208;48.956;9.076;2023-08-21T09:05:00;29.00;99.90
12291;DHT22;6208;48.956;9.076;2023-08-21T09:07:44;29.10;99.90
12291;DHT22;6208;48.956;9.076;2023-08-21T09:10:28;29.30;99.90
12291;DHT22;6208;48.956;9.076;2023-08-21T09:13:15;29.40;99.90
12291;DHT22;6208;48.956;9.076;2023-08-21T09:16:00;29.40;99.90
12291;DHT22;6208;48.956;9.076;2023-08-21T09:18:57;29.50;99.90
12291;DHT22;6208;48.956;9.076;2023-08-21T09:21:42;29.70;99.90
12291;DHT22;6208;48.956;9.076;2023-08-21T09:24:27;29.70;99.90
12291;DHT22;6208;48.956;9.076;2023-08-21T09:27:16;29.70;99.90
12291;DHT22;6208;48.956;9.076;2023-08-21T09:30:10;29.70;99.90
12291;DHT22;6208;48.956;9.076;2023-08-21T09:32:59;29.80;99.90
12291;DHT22;6208;48.956;9.076;2023-08-21T09:35:52;29.90;99.90
12291;DHT22;6208;48.956;9.076;2023-08-21T09:38:38;30.00;99.90
12291;DHT22;6208;48.956;9.076;2023-08-21T09:41:23;30.20;99.90
12291;DHT22;6208;48.956;9.076;2023-08-21T09:44:08;30.30;99.90
12291;DHT22;6208;48.956;9.076;2023-08-21T09:46:52;30.40;99.90
12291;DHT22;6208;48.956;9.076;2023-08-21T09:49:36;30.50;99.90
12291;DHT22;6208;48.956;9.076;2023-08-21T09:52:22;30.60;99.90
12291;DHT22;6208;48.956;9.076;2023-08-21T09:55:07;30.70;99.90
12291;DHT22;6208;48.956;9.076;2023-08-21T09:57:51;30.80;99.90
12291;DHT22;6208;48.956;9.076;2023-08-21T10:00:43;30.80;99.90
12291;DHT22;6208;48.956;9.076;2023-08-21T10:03:28;31.00;99.90
12291;DHT22;6208;48.956;9.076;2023-08-21T10:06:16;31.10;99.90
12291;DHT22;6208;48.956;9.076;2023-08-21T10:09:04;31.20;99.90
12291;DHT22;6208;48.956;9.076;2023-08-21T10:11:50;31.40;99.90
12291;DHT22;6208;48.956;9.076;2023-08-21T10:14:36;31.50;99.90
12291;DHT22;6208;48.956;9.076;2023-08-21T10:17:20;31.60;99.90
12291;DHT22;6208;48.956;9.076;2023-08-21T10:20:08;31.60;99.90
12291;DHT22;6208;48.956;9.076;2023-08-21T10:22:54;31.70;99.90
12291;DHT22;6208;48.956;9.076;2023-08-21T10:25:41;31.80;99.90
12291;DHT22;6208;48.956;9.076;2023-08-21T10:31:37;32.00;99.90
12291;DHT22;6208;48.956;9.076;2023-08-21T10:34:34;32.20;99.90
12291;DHT22;6208;48.956;9.076;2023-08-21T10:37:19;32.30;99.90
12291;DHT22;6208;48.956;9.076;2023-08-21T10:40:03;32.40;99.90
12291;DHT22;6208;48.956;9.076;2023-08-21T10:42:47;32.40;99.90
12291;DHT22;6208;48.956;9.076;2023-08-21T10:45:31;32.50;99.90
12291;DHT22;6208;48.956;9.076;2023-08-21T10:48:15;32.60;98.50
12291;DHT22;6208;48.956;9.076;2023-08-21T10:51:02;32.70;96.90
12291;DHT22;6208;48.956;9.076;2023-08-21T10:53:47;32.60;98.00
12291;DHT22;6208;48.956;9.076;2023-08-21T10:56:31;32.70;98.20
12291;DHT22;6208;48.956;9.076;2023-08-21T10:59:16;32.80;99.00
12291;DHT22;6208;48.956;9.076;2023-08-21T11:02:00;32.80;97.50
12291;DHT22;6208;48.956;9.076;2023-08-21T11:04:44;32.90;98.50
12291;DHT22;6208;48.956;9.076;2023-08-21T11:07:29;33.00;97.80
12291;DHT22;6208;48.956;9.076;2023-08-21T11:10:32;33.20;95.80
12291;DHT22;6208;48.956;9.076;2023-08-21T11:13:17;33.20;96.70
12291;DHT22;6208;48.956;9.076;2023-08-21T11:16:04;33.30;97.60
12291;DHT22;6208;48.956;9.076;2023-08-21T11:18:48;33.40;98.00
12291;DHT22;6208;48.956;9.076;2023-08-21T11:21:32;33.50;96.80
12291;DHT22;6208;48.956;9.076;2023-08-21T11:24:16;33.60;96.70
12291;DHT22;6208;48.956;9.076;2023-08-21T11:27:00;33.80;96.60
12291;DHT22;6208;48.956;9.076;2023-08-21T11:29:48;33.80;97.80
12291;DHT22;6208;48.956;9.076;2023-08-21T11:32:33;33.70;97.30
12291;DHT22;6208;48.956;9.076;2023-08-21T11:35:17;33.70;97.20
12291;DHT22;6208;48.956;9.076;2023-08-21T11:38:02;33.80;97.20
12291;DHT22;6208;48.956;9.076;2023-08-21T11:41:00;33.90;97.80
12291;DHT22;6208;48.956;9.076;2023-08-21T11:43:45;34.10;97.40
12291;DHT22;6208;48.956;9.076;2023-08-21T11:46:29;34.20;97.10
12291;DHT22;6208;48.956;9.076;2023-08-21T11:49:13;34.30;97.00
12291;DHT22;6208;48.956;9.076;2023-08-21T11:51:57;34.30;96.20
12291;DHT22;6208;48.956;9.076;2023-08-21T11:54:41;34.40;95.30
12291;DHT22;6208;48.956;9.076;2023-08-21T11:57:25;34.60;96.60
12291;DHT22;6208;48.956;9.076;2023-08-21T12:00:10;34.70;93.80
12291;DHT22;6208;48.956;9.076;2023-08-21T12:02:56;34.70;94.40
12291;DHT22;6208;48.956;9.076;2023-08-21T12:05:44;34.80;94.10
12291;DHT22;6208;48.956;9.076;2023-08-21T12:08:28;35.00;94.50
12291;DHT22;6208;48.956;9.076;2023-08-21T12:11:13;35.00;95.80
12291;DHT22;6208;48.956;9.076;2023-08-21T12:13:57;35.00;94.70
12291;DHT22;6208;48.956;9.076;2023-08-21T12:16:41;35.10;93.00
12291;DHT22;6208;48.956;9.076;2023-08-21T12:19:25;35.10;92.50
12291;DHT22;6208;48.956;9.076;2023-08-21T12:22:09;35.20;92.30
12291;DHT22;6208;48.956;9.076;2023-08-21T12:24:53;35.30;91.70
12291;DHT22;6208;48.956;9.076;2023-08-21T12:27:37;35.20;91.60
12291;DHT22;6208;48.956;9.076;2023-08-21T12:30:21;35.30;91.00
12291;DHT22;6208;48.956;9.076;2023-08-21T12:33:05;35.20;92.90
12291;DHT22;6208;48.956;9.076;2023-08-21T12:35:49;35.10;93.40
12291;DHT22;6208;48.956;9.076;2023-08-21T12:38:33;35.10;94.20
12291;DHT22;6208;48.956;9.076;2023-08-21T12:41:17;35.20;93.70
12291;DHT22;6208;48.956;9.076;2023-08-21T12:44:02;35.40;87.80
12291;DHT22;6208;48.956;9.076;2023-08-21T12:46:52;35.40;87.10
12291;DHT22;6208;48.956;9.076;2023-08-21T12:49:37;35.50;90.20
12291;DHT22;6208;48.956;9.076;2023-08-21T12:52:21;35.50;91.30
12291;DHT22;6208;48.956;9.076;2023-08-21T12:55:05;35.50;92.50
12291;DHT22;6208;48.956;9.076;2023-08-21T12:57:50;35.50;91.10
12291;DHT22;6208;48.956;9.076;2023-08-21T13:00:34;35.50;92.10
12291;DHT22;6208;48.956;9.076;2023-08-21T13:03:18;35.70;86.70
12291;DHT22;6208;48.956;9.076;2023-08-21T13:06:03;35.80;88.70
12291;DHT22;6208;48.956;9.076;2023-08-21T13:08:48;35.90;85.90
12291;DHT22;6208;48.956;9.076;2023-08-21T13:11:32;36.00;87.70
12291;DHT22;6208;48.956;9.076;2023-08-21T13:14:16;36.10;90.60
12291;DHT22;6208;48.956;9.076;2023-08-21T13:17:00;36.30;90.10
12291;DHT22;6208;48.956;9.076;2023-08-21T13:19:44;36.20;86.10
12291;DHT22;6208;48.956;9.076;2023-08-21T13:22:28;36.10;85.40
12291;DHT22;6208;48.956;9.076;2023-08-21T13:25:12;35.50;87.20
12291;DHT22;6208;48.956;9.076;2023-08-21T13:27:56;35.10;87.30
12291;DHT22;6208;48.956;9.076;2023-08-21T13:30:41;34.80;90.80
12291;DHT22;6208;48.956;9.076;2023-08-21T13:33:25;34.70;91.80
12291;DHT22;6208;48.956;9.076;2023-08-21T13:36:09;34.70;90.70
12291;DHT22;6208;48.956;9.076;2023-08-21T13:38:53;34.60;90.60
12291;DHT22;6208;48.956;9.076;2023-08-21T13:41:38;34.70;90.50
12291;DHT22;6208;48.956;9.076;2023-08-21T13:44:22;34.80;85.80
12291;DHT22;6208;48.956;9.076;2023-08-21T13:47:06;35.00;90.50
12291;DHT22;6208;48.956;9.076;2023-08-21T13:49:50;35.10;89.90
12291;DHT22;6208;48.956;9.076;2023-08-21T13:52:34;35.30;87.70
12291;DHT22;6208;48.956;9.076;2023-08-21T13:55:19;35.30;87.10
12291;DHT22;6208;48.956;9.076;2023-08-21T13:58:03;35.30;88.90
12291;DHT22;6208;48.956;9.076;2023-08-21T14:00:47;35.20;86.50
12291;DHT22;6208;48.956;9.076;2023-08-21T14:03:31;35.20;90.70
12291;DHT22;6208;48.956;9.076;2023-08-21T14:06:15;35.30;90.10
12291;DHT22;6208;48.956;9.076;2023-08-21T14:08:59;35.20;89.30
12291;DHT22;6208;48.956;9.076;2023-08-21T14:11:43;35.30;91.50
12291;DHT22;6208;48.956;9.076;2023-08-21T14:14:27;35.30;87.80
12291;DHT22;6208;48.956;9.076;2023-08-21T14:17:11;35.40;86.10
12291;DHT22;6208;48.956;9.076;2023-08-21T14:19:55;35.30;84.50
12291;DHT22;6208;48.956;9.076;2023-08-21T14:22:39;35.40;84.20
12291;DHT22;6208;48.956;9.076;2023-08-21T14:25:24;35.50;86.90
12291;DHT22;6208;48.956;9.076;2023-08-21T14:28:09;35.70;90.50
12291;DHT22;6208;48.956;9.076;2023-08-21T14:30:53;35.60;83.60
12291;DHT22;6208;48.956;9.076;2023-08-21T14:33:38;35.40;85.50
12291;DHT22;6208;48.956;9.076;2023-08-21T14:36:22;35.20;84.60
12291;DHT22;6208;48.956;9.076;2023-08-21T14:39:06;35.10;86.60
12291;DHT22;6208;48.956;9.076;2023-08-21T14:41:57;35.10;85.80
12291;DHT22;6208;48.956;9.076;2023-08-21T14:44:41;35.20;87.10
12291;DHT22;6208;48.956;9.076;2023-08-21T14:47:25;35.20;82.90
12291;DHT22;6208;48.956;9.076;2023-08-21T14:50:10;35.40;86.70
12291;DHT22;6208;48.956;9.076;2023-08-21T14:52:54;35.50;83.40
12291;DHT22;6208;48.956;9.076;2023-08-21T14:55:38;35.50;84.20
12291;DHT22;6208;48.956;9.076;2023-08-21T14:58:23;35.60;82.20
12291;DHT22;6208;48.956;9.076;2023-08-21T15:01:07;35.40;83.50
12291;DHT22;6208;48.956;9.076;2023-08-21T15:03:52;35.10;84.40
12291;DHT22;6208;48.956;9.076;2023-08-21T15:06:38;34.70;84.60
12291;DHT22;6208;48.956;9.076;2023-08-21T15:09:22;34.60;88.50
12291;DHT22;6208;48.956;9.076;2023-08-21T15:12:07;34.70;84.80
12291;DHT22;6208;48.956;9.076;2023-08-21T15:14:51;34.80;87.50
12291;DHT22;6208;48.956;9.076;2023-08-21T15:17:35;34.70;85.10
12291;DHT22;6208;48.956;9.076;2023-08-21T15:20:20;34.50;87.20
12291;DHT22;6208;48.956;9.076;2023-08-21T15:23:05;34.40;86.50
12291;DHT22;6208;48.956;9.076;2023-08-21T15:25:50;34.10;84.50
12291;DHT22;6208;48.956;9.076;2023-08-21T15:28:35;33.90;86.40
12291;DHT22;6208;48.956;9.076;2023-08-21T15:31:19;33.90;86.00
12291;DHT22;6208;48.956;9.076;2023-08-21T15:34:03;33.90;86.10
12291;DHT22;6208;48.956;9.076;2023-08-21T15:36:47;33.90;87.50
12291;DHT22;6208;48.956;9.076;2023-08-21T15:39:32;33.90;87.50
12291;DHT22;6208;48.956;9.076;2023-08-21T15:42:16;33.90;85.50
12291;DHT22;6208;48.956;9.076;2023-08-21T15:44:59;33.90;84.50
12291;DHT22;6208;48.956;9.076;2023-08-21T15:47:44;33.90;89.10
12291;DHT22;6208;48.956;9.076;2023-08-21T15:50:31;34.10;89.20
12291;DHT22;6208;48.956;9.076;2023-08-21T15:53:15;34.20;86.00
12291;DHT22;6208;48.956;9.076;2023-08-21T15:55:59;34.20;85.70
12291;DHT22;6208;48.956;9.076;2023-08-21T15:58:43;34.20;86.60
12291;DHT22;6208;48.956;9.076;2023-08-21T16:01:27;34.30;86.80
12291;DHT22;6208;48.956;9.076;2023-08-21T16:04:12;34.20;87.30
12291;DHT22;6208;48.956;9.076;2023-08-21T16:06:56;34.20;85.30
12291;DHT22;6208;48.956;9.076;2023-08-21T16:09:40;33.90;85.00
12291;DHT22;6208;48.956;9.076;2023-08-21T16:12:25;33.70;87.20
12291;DHT22;6208;48.956;9.076;2023-08-21T16:15:09;33.60;87.30
12291;DHT22;6208;48.956;9.076;2023-08-21T16:17:54;33.50;87.80
12291;DHT22;6208;48.956;9.076;2023-08-21T16:20:38;33.30;87.60
12291;DHT22;6208;48.956;9.076;2023-08-21T16:23:23;33.30;88.30
12291;DHT22;6208;48.956;9.076;2023-08-21T16:26:07;33.30;89.00
12291;DHT22;6208;48.956;9.076;2023-08-21T16:28:51;33.10;89.70
12291;DHT22;6208;48.956;9.076;2023-08-21T16:31:37;33.00;89.60
12291;DHT22;6208;48.956;9.076;2023-08-21T16:34:21;33.00;89.90
12291;DHT22;6208;48.956;9.076;2023-08-21T16:37:05;33.10;90.30
12291;DHT22;6208;48.956;9.076;2023-08-21T16:39:49;32.80;90.30
12291;DHT22;6208;48.956;9.076;2023-08-21T16:42:34;32.80;90.20
12291;DHT22;6208;48.956;9.076;2023-08-21T16:45:18;32.80;90.50
12291;DHT22;6208;48.956;9.076;2023-08-21T16:48:02;32.80;90.20
12291;DHT22;6208;48.956;9.076;2023-08-21T16:50:50;32.80;90.40
12291;DHT22;6208;48.956;9.076;2023-08-21T16:53:34;32.70;90.70
12291;DHT22;6208;48.956;9.076;2023-08-21T16:56:18;32.80;90.60
12291;DHT22;6208;48.956;9.076;2023-08-21T16:59:02;32.80;90.30
12291;DHT22;6208;48.956;9.076;2023-08-21T17:01:46;32.80;88.90
12291;DHT22;6208;48.956;9.076;2023-08-21T17:04:30;32.80;90.10
12291;DHT22;6208;48.956;9.076;2023-08-21T17:07:14;32.80;90.90
12291;DHT22;6208;48.956;9.076;2023-08-21T17:09:59;32.80;91.00
12291;DHT22;6208;48.956;9.076;2023-08-21T17:12:44;32.80;90.90
12291;DHT22;6208;48.956;9.076;2023-08-21T17:15:32;32.70;92.30
12291;DHT22;6208;48.956;9.076;2023-08-21T17:18:16;32.70;91.80
12291;DHT22;6208;48.956;9.076;2023-08-21T17:21:01;32.60;90.60
12291;DHT22;6208;48.956;9.076;2023-08-21T17:23:46;32.60;89.90
12291;DHT22;6208;48.956;9.076;2023-08-21T17:26:30;32.60;91.00
12291;DHT22;6208;48.956;9.076;2023-08-21T17:29:14;32.40;90.80
12291;DHT22;6208;48.956;9.076;2023-08-21T17:31:58;32.30;91.00
12291;DHT22;6208;48.956;9.076;2023-08-21T17:34:42;32.20;92.50
12291;DHT22;6208;48.956;9.076;2023-08-21T17:37:26;32.10;90.50
12291;DHT22;6208;48.956;9.076;2023-08-21T17:40:11;32.00;90.90